createdAt,value
2022-09-02T00:02:01.936Z,2.63
2022-09-02T00:04:35.461Z,1.92
2022-09-02T00:07:09.119Z,2.75
2022-09-02T00:09:43.983Z,1.75
2022-09-02T00:12:17.335Z,1.55
2022-09-02T00:14:50.811Z,2.40
2022-09-02T00:17:24.300Z,1.80
2022-09-02T00:19:57.762Z,1.88
2022-09-02T00:22:31.147Z,1.85
2022-09-02T00:25:06.904Z,2.42
2022-09-02T00:27:40.315Z,2.30
2022-09-02T00:30:15.827Z,2.13
2022-09-02T00:32:49.191Z,2.75
2022-09-02T00:35:22.781Z,2.92
2022-09-02T00:37:56.219Z,1.65
2022-09-02T00:40:32.593Z,1.50
2022-09-02T00:43:08.334Z,1.98
2022-09-02T00:45:41.967Z,2.35
2022-09-02T00:48:15.368Z,1.63
2022-09-02T00:50:49.038Z,1.85
2022-09-02T00:53:22.629Z,1.98
2022-09-02T00:55:58.276Z,1.95
2022-09-02T00:58:36.183Z,1.90
2022-09-02T01:01:12.167Z,1.83
2022-09-02T01:03:45.950Z,2.20
2022-09-02T01:06:25.180Z,2.13
2022-09-02T01:09:03.392Z,1.88
2022-09-02T01:11:45.126Z,2.20
2022-09-02T01:14:18.702Z,1.55
2022-09-02T01:16:54.806Z,1.83
2022-09-02T01:19:33.064Z,2.08
2022-09-02T01:22:17.455Z,1.75
2022-09-02T01:24:51.786Z,1.80
2022-09-02T01:27:25.780Z,1.83
2022-09-02T01:30:01.341Z,1.85
2022-09-02T01:32:34.775Z,1.85
2022-09-02T01:35:09.644Z,2.08
2022-09-02T01:37:53.596Z,1.52
2022-09-02T01:40:31.254Z,1.70
2022-09-02T01:43:08.247Z,1.90
2022-09-02T01:45:44.312Z,2.25
2022-09-02T01:48:21.702Z,2.17
2022-09-02T01:50:59.860Z,2.20
2022-09-02T01:53:35.146Z,1.80
2022-09-02T01:56:08.754Z,1.73
2022-09-02T01:58:42.237Z,1.85
2022-09-02T02:01:17.091Z,1.25
2022-09-02T02:03:52.993Z,2.03
2022-09-02T02:06:29.505Z,1.85
2022-09-02T02:09:05.612Z,1.60
2022-09-02T02:11:40.418Z,1.58
2022-09-02T02:14:14.227Z,1.60
2022-09-02T02:16:52.901Z,1.73
2022-09-02T02:19:26.273Z,2.42
2022-09-02T02:22:00.094Z,1.50
2022-09-02T02:24:35.116Z,1.95
2022-09-02T02:27:08.609Z,2.42
2022-09-02T02:29:42.719Z,1.60
2022-09-02T02:32:18.457Z,1.70
2022-09-02T02:34:51.956Z,1.17
2022-09-02T02:37:25.738Z,1.38
2022-09-02T02:40:01.284Z,1.33
2022-09-02T02:42:36.463Z,1.50
2022-09-02T02:45:14.922Z,1.73
2022-09-02T02:47:49.827Z,1.65
2022-09-02T02:50:25.244Z,1.73
2022-09-02T02:52:58.735Z,1.00
2022-09-02T02:55:33.807Z,1.10
2022-09-02T02:58:08.304Z,0.90
2022-09-02T03:00:41.933Z,1.20
2022-09-02T03:03:19.781Z,1.90
2022-09-02T03:05:55.856Z,1.45
2022-09-02T03:08:29.846Z,1.55
2022-09-02T03:11:07.083Z,2.13
2022-09-02T03:13:44.609Z,1.63
2022-09-02T03:16:20.000Z,1.33
2022-09-02T03:18:53.982Z,1.92
2022-09-02T03:21:27.718Z,1.65
2022-09-02T03:24:01.631Z,1.77
2022-09-02T03:26:36.726Z,2.20
2022-09-02T03:29:10.514Z,1.52
2022-09-02T03:31:44.706Z,1.55
2022-09-02T03:34:18.550Z,2.17
2022-09-02T03:36:52.152Z,1.70
2022-09-02T03:39:25.886Z,1.52
2022-09-02T03:42:01.064Z,1.33
2022-09-02T03:44:35.314Z,1.85
2022-09-02T03:47:09.127Z,1.73
2022-09-02T03:49:43.736Z,1.60
2022-09-02T03:52:19.033Z,1.85
2022-09-02T03:54:52.892Z,1.40
2022-09-02T03:57:29.310Z,1.60
2022-09-02T04:00:04.288Z,1.75
2022-09-02T04:02:50.000Z,1.15
2022-09-02T04:05:25.712Z,1.17
2022-09-02T04:08:02.193Z,1.13
2022-09-02T04:10:35.897Z,1.60
2022-09-02T04:13:11.429Z,1.52
2022-09-02T04:15:48.377Z,1.83
2022-09-02T04:18:23.558Z,1.58
2022-09-02T04:21:00.921Z,1.80
2022-09-02T04:23:35.403Z,1.80
2022-09-02T04:26:11.800Z,2.00
2022-09-02T04:28:46.752Z,1.77
2022-09-02T04:31:22.373Z,3.60
2022-09-02T04:33:57.381Z,2.35
2022-09-02T04:36:32.192Z,1.95
2022-09-02T04:39:09.668Z,5.00
2022-09-02T04:41:44.052Z,1.50
2022-09-02T04:44:21.142Z,1.70
2022-09-02T04:46:54.927Z,1.65
2022-09-02T04:49:32.094Z,2.33
2022-09-02T04:52:06.252Z,1.42
2022-09-02T04:54:40.211Z,1.60
2022-09-02T04:57:14.818Z,1.27
2022-09-02T04:59:50.323Z,1.10
2022-09-02T05:02:24.323Z,1.60
2022-09-02T05:04:58.046Z,1.95
2022-09-02T05:07:38.043Z,1.20
2022-09-02T05:10:15.113Z,1.48
2022-09-02T05:12:50.072Z,1.10
2022-09-02T05:15:25.489Z,0.85
2022-09-02T05:17:59.477Z,1.30
2022-09-02T05:20:33.013Z,1.58
2022-09-02T05:23:06.621Z,1.60
2022-09-02T05:25:40.945Z,2.03
2022-09-02T05:28:15.219Z,2.40
2022-09-02T05:30:50.062Z,1.50
2022-09-02T05:33:24.204Z,1.88
2022-09-02T05:35:57.654Z,1.50
2022-09-02T05:38:31.787Z,1.60
2022-09-02T05:41:08.330Z,3.45
2022-09-02T05:43:44.574Z,2.10
2022-09-02T05:46:22.390Z,2.35
2022-09-02T05:49:17.802Z,1.58
2022-09-02T05:52:01.911Z,1.48
2022-09-02T05:54:46.981Z,1.98
2022-09-02T05:57:23.423Z,1.42
2022-09-02T06:00:07.820Z,1.40
2022-09-02T06:02:49.158Z,1.45
2022-09-02T06:05:37.321Z,1.88
2022-09-02T06:08:16.139Z,2.20
2022-09-02T06:10:49.875Z,2.03
2022-09-02T06:13:27.096Z,1.83
2022-09-02T06:16:02.277Z,1.17
2022-09-02T06:18:39.005Z,1.65
2022-09-02T06:21:14.287Z,1.52
2022-09-02T06:23:50.578Z,1.60
2022-09-02T06:26:24.114Z,2.03
2022-09-02T06:28:57.713Z,2.42
2022-09-02T06:31:34.613Z,2.08
2022-09-02T06:34:13.775Z,1.45
2022-09-02T06:36:51.128Z,2.08
2022-09-02T06:39:27.066Z,1.88
2022-09-02T06:42:03.123Z,1.58
2022-09-02T06:44:38.144Z,1.60
2022-09-02T06:47:12.242Z,1.40
2022-09-02T06:49:47.953Z,1.52
2022-09-02T06:52:21.647Z,1.67
2022-09-02T06:54:55.814Z,1.38
2022-09-02T06:57:34.131Z,1.58
2022-09-02T07:03:07.187Z,1.50
2022-09-02T07:05:41.954Z,1.55
2022-09-02T07:08:15.535Z,1.40
2022-09-02T07:10:49.304Z,1.25
2022-09-02T07:13:23.933Z,1.50
2022-09-02T07:15:57.440Z,1.08
2022-09-02T07:18:31.027Z,1.35
2022-09-02T07:21:06.460Z,1.45
2022-09-02T07:23:41.387Z,1.02
2022-09-02T07:26:17.521Z,1.08
2022-09-02T07:28:52.910Z,1.10
2022-09-02T07:31:29.449Z,0.70
2022-09-02T07:34:04.569Z,1.00
2022-09-02T07:36:39.570Z,0.90
2022-09-02T07:39:13.801Z,0.80
2022-09-02T07:41:51.266Z,0.93
2022-09-02T07:44:26.238Z,0.50
2022-09-02T07:47:00.219Z,0.40
2022-09-02T07:52:29.541Z,0.73
2022-09-02T07:55:03.048Z,0.50
2022-09-02T07:57:36.670Z,0.50
2022-09-02T08:00:13.706Z,0.40
2022-09-02T08:02:51.903Z,0.80
2022-09-02T08:05:31.939Z,0.57
2022-09-02T08:08:07.201Z,0.70
2022-09-02T08:10:41.554Z,0.40
2022-09-02T08:13:15.133Z,0.30
2022-09-02T08:15:50.603Z,0.40
2022-09-02T08:18:25.061Z,0.73
2022-09-02T08:20:58.510Z,0.77
2022-09-02T08:23:37.167Z,0.30
2022-09-02T08:26:11.294Z,0.68
2022-09-02T08:28:44.719Z,0.80
2022-09-02T08:31:18.667Z,0.30
2022-09-02T08:33:52.158Z,0.43
2022-09-02T08:36:25.569Z,0.77
2022-09-02T08:39:02.454Z,0.60
2022-09-02T08:41:44.639Z,0.68
2022-09-02T08:44:23.790Z,0.50
2022-09-02T08:47:02.438Z,0.45
2022-09-02T08:49:39.983Z,0.25
2022-09-02T08:52:21.472Z,0.30
2022-09-02T08:54:57.284Z,0.75
2022-09-02T08:57:32.709Z,0.60
2022-09-02T09:00:07.384Z,0.40
2022-09-02T09:02:56.752Z,0.55
2022-09-02T09:05:44.275Z,0.40
2022-09-02T09:08:26.241Z,0.90
2022-09-02T09:11:06.045Z,0.52
2022-09-02T09:14:09.249Z,0.50
2022-09-02T09:16:50.830Z,0.90
2022-09-02T09:19:35.118Z,0.30
2022-09-02T09:22:08.787Z,0.47
2022-09-02T09:24:45.454Z,0.65
2022-09-02T09:27:22.544Z,0.50
2022-09-02T09:29:55.889Z,0.50
2022-09-02T09:32:33.291Z,0.50
2022-09-02T09:35:09.903Z,1.10
2022-09-02T09:37:45.815Z,0.55
2022-09-02T09:40:29.242Z,0.68
2022-09-02T09:43:23.996Z,0.70
2022-09-02T09:45:57.466Z,0.70
2022-09-02T09:48:31.724Z,0.70
2022-09-02T09:51:18.793Z,0.45
2022-09-02T09:53:52.871Z,1.05
2022-09-02T09:56:37.480Z,0.80
2022-09-02T09:59:37.929Z,0.50
2022-09-02T10:02:22.346Z,1.10
2022-09-02T10:05:11.286Z,0.80
2022-09-02T10:07:45.475Z,0.90
2022-09-02T10:10:22.218Z,0.57
2022-09-02T10:12:59.096Z,0.65
2022-09-02T10:15:44.611Z,0.90
2022-09-02T10:18:25.454Z,1.00
2022-09-02T10:21:13.959Z,0.90
2022-09-02T10:23:56.077Z,1.02
2022-09-02T10:26:39.104Z,0.75
2022-09-02T10:29:47.182Z,1.08
2022-09-02T10:32:41.222Z,1.00
2022-09-02T10:35:22.464Z,0.80
2022-09-02T10:38:12.485Z,0.90
2022-09-02T10:40:50.757Z,1.05
2022-09-02T10:43:32.232Z,0.88
2022-09-02T10:46:10.602Z,0.88
2022-09-02T10:48:56.641Z,0.90
2022-09-02T10:51:38.213Z,1.05
2022-09-02T10:54:30.219Z,0.85
2022-09-02T10:57:11.307Z,1.10
2022-09-02T10:59:50.986Z,0.80
2022-09-02T11:02:29.491Z,1.35
2022-09-02T11:05:09.868Z,0.85
2022-09-02T11:07:48.821Z,0.90
2022-09-02T11:10:26.854Z,1.00
2022-09-02T11:13:06.134Z,1.00
2022-09-02T11:15:48.681Z,1.05
2022-09-02T11:18:26.782Z,1.02
2022-09-02T11:21:07.018Z,0.77
2022-09-02T11:23:45.285Z,0.90
2022-09-02T11:26:27.748Z,0.88
2022-09-02T11:29:06.171Z,1.13
2022-09-02T11:31:43.628Z,0.93
2022-09-02T11:34:23.599Z,0.70
2022-09-02T11:36:58.458Z,1.35
2022-09-02T11:39:52.558Z,0.80
2022-09-02T11:42:43.904Z,0.80
2022-09-02T11:45:48.474Z,0.93
2022-09-02T11:48:52.298Z,0.68
2022-09-02T11:51:44.676Z,0.75
2022-09-02T11:54:22.959Z,1.20
2022-09-02T11:57:01.944Z,0.52
2022-09-02T12:00:14.099Z,1.15
2022-09-02T12:02:50.996Z,1.02
2022-09-02T12:05:50.010Z,1.15
2022-09-02T12:08:59.222Z,0.75
2022-09-02T12:11:48.012Z,0.90
2022-09-02T12:15:07.672Z,0.98
2022-09-02T12:18:11.596Z,1.02
2022-09-02T12:21:16.535Z,1.20
2022-09-02T12:24:25.518Z,1.05
2022-09-02T12:29:53.449Z,0.70
2022-09-02T12:33:20.050Z,1.15
2022-09-02T12:35:56.686Z,0.80
2022-09-02T12:38:36.458Z,0.90
2022-09-02T12:41:30.543Z,0.60
2022-09-02T12:44:19.441Z,0.90
2022-09-02T12:47:06.426Z,0.95
2022-09-02T12:49:48.470Z,1.00
2022-09-02T12:52:45.808Z,0.82
2022-09-02T12:55:25.945Z,0.82
2022-09-02T12:58:10.065Z,0.95
2022-09-02T13:01:01.386Z,1.05
2022-09-02T13:03:58.829Z,0.90
2022-09-02T13:06:48.860Z,1.30
2022-09-02T13:09:51.718Z,1.15
2022-09-02T13:13:03.268Z,1.00
2022-09-02T13:15:58.273Z,1.35
2022-09-02T13:19:05.315Z,1.00
2022-09-02T13:22:04.183Z,1.40
2022-09-02T13:25:15.981Z,0.90
2022-09-02T13:28:25.023Z,0.82
2022-09-02T13:31:16.584Z,2.20
2022-09-02T13:34:05.348Z,1.10
2022-09-02T13:36:42.852Z,1.48
2022-09-02T13:39:18.205Z,2.65
2022-09-02T13:41:51.782Z,1.50
2022-09-02T13:44:29.042Z,5.20
2022-09-02T13:47:05.661Z,2.00
2022-09-02T13:49:43.532Z,1.88
2022-09-02T13:52:27.415Z,1.38
2022-09-02T13:55:16.592Z,2.15
2022-09-02T13:57:57.046Z,1.58
2022-09-02T14:00:34.997Z,6.18
2022-09-02T14:03:11.967Z,2.58
2022-09-02T14:05:49.036Z,1.98
2022-09-02T14:08:26.865Z,1.80
2022-09-02T14:11:06.832Z,1.58
2022-09-02T14:13:46.720Z,1.10
2022-09-02T14:16:33.456Z,1.40
2022-09-02T14:19:14.684Z,1.27
2022-09-02T14:21:51.016Z,1.13
2022-09-02T14:24:27.075Z,1.63
2022-09-02T14:27:01.715Z,1.90
2022-09-02T14:29:35.097Z,1.40
2022-09-02T14:32:14.024Z,1.30
2022-09-02T14:34:49.299Z,1.52
2022-09-02T14:37:26.908Z,1.38
2022-09-02T14:40:12.154Z,1.10
2022-09-02T14:42:48.721Z,1.17
2022-09-02T14:45:28.436Z,0.90
2022-09-02T14:48:04.283Z,1.27
2022-09-02T14:50:38.390Z,1.70
2022-09-02T14:53:20.345Z,1.45
2022-09-02T14:55:55.762Z,1.53
2022-09-02T14:58:29.740Z,1.45
2022-09-02T15:01:03.687Z,1.98
2022-09-02T15:03:39.436Z,1.08
2022-09-02T15:06:15.263Z,1.42
2022-09-02T15:08:50.584Z,0.98
2022-09-02T15:11:24.239Z,0.98
2022-09-02T15:13:57.596Z,1.38
2022-09-02T15:16:31.137Z,1.80
2022-09-02T15:19:04.986Z,1.85
2022-09-02T15:21:38.483Z,1.30
2022-09-02T15:24:13.617Z,1.77
2022-09-02T15:26:47.486Z,1.80
2022-09-02T15:29:25.119Z,1.83
2022-09-02T15:32:03.046Z,1.60
2022-09-02T15:34:36.688Z,1.65
2022-09-02T15:37:13.075Z,1.52
2022-09-02T15:39:48.614Z,1.33
2022-09-02T15:42:22.204Z,1.40
2022-09-02T15:44:55.657Z,1.35
2022-09-02T15:47:30.553Z,1.50
2022-09-02T15:50:04.270Z,1.63
2022-09-02T15:52:38.572Z,1.25
2022-09-02T15:55:13.515Z,1.48
2022-09-02T15:57:46.921Z,1.27
2022-09-02T16:00:20.484Z,0.85
2022-09-02T16:02:56.993Z,1.98
2022-09-02T16:05:32.549Z,1.33
2022-09-02T16:08:05.926Z,1.60
2022-09-02T16:10:40.842Z,1.10
2022-09-02T16:13:14.283Z,1.48
2022-09-02T16:15:47.713Z,1.13
2022-09-02T16:18:21.038Z,1.30
2022-09-02T16:20:54.618Z,1.50
2022-09-02T16:23:28.472Z,1.83
2022-09-02T16:26:12.051Z,1.70
2022-09-02T16:28:46.673Z,1.42
2022-09-02T16:31:21.478Z,1.27
2022-09-02T16:33:56.051Z,1.20
2022-09-02T16:36:33.462Z,1.23
2022-09-02T16:39:08.160Z,1.05
2022-09-02T16:41:45.405Z,1.27
2022-09-02T16:44:21.379Z,1.20
2022-09-02T16:46:55.293Z,1.23
2022-09-02T16:49:28.878Z,1.50
2022-09-02T16:52:02.349Z,1.20
2022-09-02T16:54:40.088Z,1.02
2022-09-02T16:57:15.627Z,1.27
2022-09-02T16:59:49.489Z,1.10
2022-09-02T17:02:23.480Z,1.23
2022-09-02T17:04:56.929Z,1.55
2022-09-02T17:07:30.330Z,1.15
2022-09-02T17:10:03.709Z,1.23
2022-09-02T17:12:42.267Z,1.30
2022-09-02T17:15:16.706Z,1.38
2022-09-02T17:17:50.150Z,1.60
2022-09-02T17:20:24.277Z,1.30
2022-09-02T17:22:57.692Z,2.38
2022-09-02T17:25:31.086Z,1.92
2022-09-02T17:28:05.944Z,2.03
2022-09-02T17:30:39.440Z,2.45
2022-09-02T17:33:13.007Z,3.58
2022-09-02T17:35:56.392Z,4.32
2022-09-02T17:38:29.762Z,3.53
2022-09-02T17:41:20.897Z,4.13
2022-09-02T17:43:55.720Z,2.80
2022-09-02T17:46:29.078Z,2.10
2022-09-02T17:49:16.960Z,2.03
2022-09-02T17:51:51.497Z,1.80
2022-09-02T17:54:27.895Z,1.75
2022-09-02T17:57:10.789Z,1.85
2022-09-02T18:00:01.369Z,2.15
2022-09-02T18:03:13.921Z,1.70
2022-09-02T18:05:59.086Z,2.53
2022-09-02T18:08:39.999Z,1.92
2022-09-02T18:11:13.498Z,1.67
2022-09-02T18:13:56.221Z,1.70
2022-09-02T18:16:37.450Z,2.15
2022-09-02T18:19:24.780Z,2.72
2022-09-02T18:22:15.364Z,1.88
2022-09-02T18:25:10.251Z,1.73
2022-09-02T18:27:53.873Z,1.70
2022-09-02T18:30:35.891Z,1.67
2022-09-02T18:33:39.914Z,1.92
2022-09-02T18:36:24.269Z,1.80
2022-09-02T18:39:19.692Z,1.80
2022-09-02T18:42:08.308Z,1.25
2022-09-02T18:44:50.210Z,1.38
2022-09-02T18:47:28.672Z,1.48
2022-09-02T18:50:06.440Z,1.80
2022-09-02T18:52:42.475Z,1.88
2022-09-02T18:55:17.928Z,1.58
2022-09-02T18:57:56.903Z,1.42
2022-09-02T19:00:42.457Z,1.45
2022-09-02T19:03:16.208Z,1.65
2022-09-02T19:05:51.015Z,1.58
2022-09-02T19:08:33.390Z,1.70
2022-09-02T19:11:09.045Z,1.92
2022-09-02T19:13:48.053Z,1.52
2022-09-02T19:16:24.651Z,1.55
2022-09-02T19:18:58.210Z,1.75
2022-09-02T19:21:37.298Z,1.60
2022-09-02T19:24:14.156Z,1.50
2022-09-02T19:26:47.724Z,2.13
2022-09-02T19:29:25.407Z,1.90
2022-09-02T19:31:59.335Z,1.27
2022-09-02T19:34:36.895Z,1.83
2022-09-02T19:37:13.037Z,2.10
2022-09-02T19:39:51.284Z,2.10
2022-09-02T19:42:24.783Z,3.17
2022-09-02T19:44:58.478Z,2.15
2022-09-02T19:50:28.202Z,3.22
2022-09-02T19:53:03.180Z,3.72
2022-09-02T19:55:38.810Z,2.65
2022-09-02T19:58:12.441Z,2.70
2022-09-02T20:00:47.245Z,2.42
2022-09-02T20:03:21.363Z,2.05
2022-09-02T20:05:55.014Z,2.67
2022-09-02T20:08:31.177Z,3.33
2022-09-02T20:11:06.328Z,3.33
2022-09-02T20:13:41.653Z,2.30
2022-09-02T20:16:19.930Z,2.30
2022-09-02T20:18:55.237Z,2.97
2022-09-02T20:21:31.458Z,2.45
2022-09-02T20:24:09.440Z,2.97
2022-09-02T20:27:06.379Z,2.40
2022-09-02T20:29:59.060Z,3.50
2022-09-02T20:32:50.967Z,2.63
2022-09-02T20:36:08.678Z,3.15
2022-09-02T20:39:07.564Z,2.72
2022-09-02T20:41:55.255Z,2.63
2022-09-02T20:44:48.526Z,2.20
2022-09-02T20:47:35.374Z,2.50
2022-09-02T20:50:25.991Z,1.80
2022-09-02T20:53:12.609Z,2.75
2022-09-02T20:55:50.951Z,2.47
2022-09-02T20:58:36.093Z,2.00
2022-09-02T21:01:12.708Z,2.17
2022-09-02T21:03:52.107Z,2.40
2022-09-02T21:06:29.622Z,2.00
2022-09-02T21:09:09.055Z,2.45
2022-09-02T21:11:49.911Z,2.47
2022-09-02T21:14:29.522Z,3.25
2022-09-02T21:17:07.418Z,2.60
2022-09-02T21:19:45.754Z,2.35
2022-09-02T21:22:24.470Z,2.53
2022-09-02T21:25:01.992Z,2.88
2022-09-02T21:27:45.305Z,3.22
2022-09-02T21:30:22.818Z,2.33
2022-09-02T21:33:00.161Z,2.55
2022-09-02T21:35:40.201Z,2.65
2022-09-02T21:38:16.786Z,2.55
2022-09-02T21:41:01.127Z,2.65
2022-09-02T21:43:48.695Z,2.08
2022-09-02T21:46:32.488Z,3.85
2022-09-02T21:49:15.310Z,2.40
2022-09-02T21:54:41.690Z,2.42
2022-09-02T21:57:26.216Z,1.92
2022-09-02T22:00:02.277Z,1.80
2022-09-02T22:02:50.171Z,2.95
2022-09-02T22:05:36.077Z,2.65
2022-09-02T22:08:15.756Z,2.75
2022-09-02T22:11:00.592Z,3.15
2022-09-02T22:13:34.749Z,3.25
2022-09-02T22:16:17.969Z,2.72
2022-09-02T22:19:01.877Z,2.60
2022-09-02T22:21:39.989Z,2.60
2022-09-02T22:24:13.328Z,3.28
2022-09-02T22:26:51.347Z,2.65
2022-09-02T22:29:36.582Z,2.97
2022-09-02T22:32:14.291Z,2.83
2022-09-02T22:35:02.573Z,2.75
2022-09-02T22:37:47.360Z,2.65
2022-09-02T22:40:24.041Z,3.13
2022-09-02T22:43:04.053Z,2.63
2022-09-02T22:45:59.902Z,3.40
2022-09-02T22:48:56.716Z,2.78
2022-09-02T22:52:05.199Z,2.58
2022-09-02T22:54:38.614Z,2.88
2022-09-02T22:57:20.846Z,2.95
2022-09-02T23:00:03.273Z,2.88
2022-09-02T23:02:39.966Z,2.78
2022-09-02T23:05:45.491Z,2.55
2022-09-02T23:08:23.048Z,2.95
2022-09-02T23:11:02.071Z,2.63
2022-09-02T23:13:55.988Z,2.65
2022-09-02T23:16:37.252Z,2.50
2022-09-02T23:19:20.807Z,2.88
2022-09-02T23:22:01.494Z,2.38
2022-09-02T23:24:45.298Z,2.75
2022-09-02T23:27:27.087Z,2.42
2022-09-02T23:30:00.727Z,1.90
2022-09-02T23:32:49.281Z,2.72
2022-09-02T23:35:27.907Z,2.38
2022-09-02T23:38:16.127Z,2.90
2022-09-02T23:40:58.541Z,2.33
2022-09-02T23:43:32.103Z,2.10
2022-09-02T23:46:17.812Z,2.47
2022-09-02T23:49:04.721Z,2.08
2022-09-02T23:51:46.524Z,2.20
2022-09-02T23:54:37.150Z,1.95
2022-09-02T23:57:28.150Z,2.85
